Sylvan Township, Michigan
Current Conditions -  °F | °C
As of 7:53 AM on Tuesday 21 Oct 2014 (Local Time) from KARB Reporting Station
Overcast Overcast  
Wind Chill: 44°   Ceiling: 1100
Heat Index: 47°   Visibility: 10mi
Dew Point: 43°   Wind: 7mph
Humidity: 86%   Direction: 330°NNW
Pressure: 29.96"   Gusts: NA
Location:  42.3129°N, 84.0322°W
Report Text: KARB 211153Z 33006KT 10SM BKN011 OVC015 08/06 A2996 RMK AO2 CIG 007V012 SLP147 70020 T00830061 10094 20083 53014
Loading
Personal Weather Stations






























Interactive Weather Map
Tropical Storm Tracking
New forecast layout! Learn more

10-Day Weather Forecast

Advertisements
Track Severe Weather on mobile